createdAt,value
2022-11-28T00:00:08.280Z,89.40
2022-11-28T00:01:08.272Z,88.99
2022-11-28T00:02:08.465Z,89.19
2022-11-28T00:03:08.380Z,89.29
2022-11-28T00:04:08.352Z,89.09
2022-11-28T00:05:08.257Z,89.09
2022-11-28T00:06:08.228Z,89.50
2022-11-28T00:07:08.205Z,89.44
2022-11-28T00:08:08.193Z,88.99
2022-11-28T00:09:08.178Z,89.29
2022-11-28T00:10:08.166Z,89.71
2022-11-28T00:11:08.172Z,89.29
2022-11-28T00:12:08.142Z,89.75
2022-11-28T00:13:08.134Z,89.44
2022-11-28T00:14:08.123Z,89.19
2022-11-28T00:15:16.912Z,89.34
2022-11-28T00:16:08.290Z,89.65
2022-11-28T00:17:08.098Z,89.81
2022-11-28T00:18:08.092Z,90.06
2022-11-28T00:19:08.062Z,89.91
2022-11-28T00:20:08.186Z,90.12
2022-11-28T00:21:08.042Z,89.81
2022-11-28T00:22:08.040Z,89.81
2022-11-28T00:23:08.017Z,89.71
2022-11-28T00:24:08.011Z,90.22
2022-11-28T00:25:08.006Z,90.43
2022-11-28T00:26:08.007Z,90.84
2022-11-28T00:27:07.972Z,90.84
2022-11-28T00:28:07.981Z,91.25
2022-11-28T00:29:07.949Z,91.05
2022-11-28T00:30:07.963Z,91.05
2022-11-28T00:31:07.930Z,91.30
2022-11-28T00:32:07.967Z,91.30
2022-11-28T00:33:07.904Z,90.64
2022-11-28T00:34:07.915Z,90.94
2022-11-28T00:35:07.879Z,90.88
2022-11-28T00:36:07.991Z,90.78
2022-11-28T00:37:07.869Z,90.53
2022-11-28T00:38:07.851Z,90.99
2022-11-28T00:39:07.839Z,90.88
2022-11-28T00:40:07.827Z,91.30
2022-11-28T00:41:07.817Z,90.88
2022-11-28T00:42:07.837Z,90.88
2022-11-28T00:43:07.792Z,91.40
2022-11-28T00:44:07.792Z,91.09
2022-11-28T00:45:07.784Z,90.88
2022-11-28T00:46:07.886Z,91.60
2022-11-28T00:47:07.745Z,91.30
2022-11-28T00:48:07.768Z,92.12
2022-11-28T00:49:07.722Z,92.84
2022-11-28T00:50:07.728Z,92.59
2022-11-28T00:51:07.727Z,92.53
2022-11-28T00:52:07.811Z,92.63
2022-11-28T00:53:07.690Z,92.43
2022-11-28T00:54:07.689Z,92.84
2022-11-28T00:55:07.655Z,93.35
2022-11-28T00:56:07.648Z,92.94
2022-11-28T00:57:07.656Z,93.35
2022-11-28T00:58:07.634Z,93.05
2022-11-28T00:59:07.629Z,93.15
2022-11-28T01:00:07.630Z,93.25
2022-11-28T01:01:07.645Z,93.35
2022-11-28T01:02:07.609Z,93.35
2022-11-28T01:03:07.582Z,93.35
2022-11-28T01:04:07.558Z,93.56
2022-11-28T01:05:07.543Z,93.77
2022-11-28T01:06:07.559Z,93.46
2022-11-28T01:07:07.520Z,93.66
2022-11-28T01:08:07.647Z,93.56
2022-11-28T01:09:07.512Z,93.15
2022-11-28T01:10:07.488Z,93.35
2022-11-28T01:11:07.477Z,93.66
2022-11-28T01:12:07.490Z,93.46
2022-11-28T01:13:07.454Z,93.35
2022-11-28T01:14:07.454Z,93.66
2022-11-28T01:15:07.430Z,93.56
2022-11-28T01:16:07.502Z,93.46
2022-11-28T01:17:07.408Z,93.15
2022-11-28T01:18:07.411Z,93.35
2022-11-28T01:19:07.395Z,93.35
2022-11-28T01:20:07.378Z,93.56
2022-11-28T01:21:07.361Z,93.35
2022-11-28T01:22:07.371Z,93.25
2022-11-28T01:23:07.336Z,94.49
2022-11-28T01:24:07.454Z,94.38
2022-11-28T01:25:07.317Z,94.38
2022-11-28T01:26:07.328Z,93.77
2022-11-28T01:27:07.329Z,93.35
2022-11-28T01:28:07.286Z,94.08
2022-11-28T01:29:07.305Z,93.35
2022-11-28T01:30:07.263Z,93.35
2022-11-28T01:31:07.340Z,93.77
2022-11-28T01:32:07.262Z,94.38
2022-11-28T01:33:07.224Z,94.28
2022-11-28T01:34:07.239Z,94.28
2022-11-28T01:35:07.227Z,94.18
2022-11-28T01:36:07.193Z,94.28
2022-11-28T01:37:07.180Z,94.08
2022-11-28T01:38:07.169Z,93.98
2022-11-28T01:39:07.162Z,93.98
2022-11-28T01:40:07.282Z,94.08
2022-11-28T01:41:07.156Z,93.98
2022-11-28T01:42:07.126Z,93.46
2022-11-28T01:43:07.117Z,93.77
2022-11-28T01:44:07.118Z,93.35
2022-11-28T01:45:07.100Z,93.35
2022-11-28T01:46:07.081Z,93.77
2022-11-28T01:47:07.153Z,94.38
2022-11-28T01:48:07.059Z,94.18
2022-11-28T01:49:07.057Z,94.28
2022-11-28T01:50:07.045Z,94.38
2022-11-28T01:51:07.050Z,93.87
2022-11-28T01:52:07.011Z,93.83
2022-11-28T01:53:07.001Z,93.98
2022-11-28T01:54:07.010Z,93.52
2022-11-28T01:55:06.982Z,93.46
2022-11-28T01:56:07.086Z,93.62
2022-11-28T01:57:06.956Z,93.25
2022-11-28T01:58:06.948Z,92.90
2022-11-28T01:59:06.931Z,93.31
2022-11-28T02:00:06.950Z,93.01
2022-11-28T02:01:06.965Z,93.01
2022-11-28T02:02:06.960Z,93.11
2022-11-28T02:03:06.887Z,93.41
2022-11-28T02:04:06.879Z,92.38
2022-11-28T02:05:06.866Z,93.11
2022-11-28T02:06:06.881Z,92.18
2022-11-28T02:07:06.841Z,92.69
2022-11-28T02:08:06.839Z,92.69
2022-11-28T02:09:06.817Z,92.80
2022-11-28T02:10:06.809Z,92.80
2022-11-28T02:11:06.834Z,92.69
2022-11-28T02:12:07.006Z,93.01
2022-11-28T02:13:06.774Z,93.11
2022-11-28T02:14:06.767Z,93.52
2022-11-28T02:15:06.749Z,93.41
2022-11-28T02:16:06.790Z,93.41
2022-11-28T02:17:06.734Z,93.21
2022-11-28T02:18:06.726Z,93.01
2022-11-28T02:19:06.706Z,93.21
2022-11-28T02:20:06.694Z,93.21
2022-11-28T02:21:06.691Z,93.11
2022-11-28T02:22:06.694Z,93.31
2022-11-28T02:23:06.658Z,93.11
2022-11-28T02:24:06.662Z,93.21
2022-11-28T02:25:06.638Z,93.21
2022-11-28T02:26:06.639Z,93.31
2022-11-28T02:27:06.609Z,93.21
2022-11-28T02:28:06.721Z,93.52
2022-11-28T02:29:06.589Z,93.27
2022-11-28T02:30:06.599Z,93.41
2022-11-28T02:31:06.638Z,93.52
2022-11-28T02:32:06.561Z,93.41
2022-11-28T02:33:06.546Z,93.31
2022-11-28T02:34:06.543Z,93.21
2022-11-28T02:35:06.537Z,93.31
2022-11-28T02:36:06.691Z,93.62
2022-11-28T02:37:06.503Z,93.21
2022-11-28T02:38:06.490Z,93.41
2022-11-28T02:39:06.486Z,93.62
2022-11-28T02:40:06.471Z,93.41
2022-11-28T02:41:06.456Z,93.16
2022-11-28T02:42:06.465Z,94.30
2022-11-28T02:43:06.433Z,94.03
2022-11-28T02:44:06.544Z,94.24
2022-11-28T02:45:06.412Z,94.09
2022-11-28T02:46:06.402Z,94.03
2022-11-28T02:47:06.423Z,94.03
2022-11-28T02:48:06.389Z,93.93
2022-11-28T02:49:06.394Z,93.79
2022-11-28T02:50:06.357Z,94.24
2022-11-28T02:51:06.343Z,94.13
2022-11-28T02:52:06.345Z,94.30
2022-11-28T02:53:06.326Z,94.40
2022-11-28T02:54:06.320Z,94.30
2022-11-28T02:55:06.316Z,93.88
2022-11-28T02:56:06.288Z,94.71
2022-11-28T02:57:06.306Z,94.76
2022-11-28T02:58:06.265Z,94.76
2022-11-28T02:59:06.251Z,94.34
2022-11-28T03:00:06.358Z,94.65
2022-11-28T03:01:06.288Z,94.76
2022-11-28T03:02:06.235Z,95.02
2022-11-28T03:03:06.230Z,94.92
2022-11-28T03:04:06.197Z,94.81
2022-11-28T03:05:06.187Z,94.71
2022-11-28T03:06:06.184Z,94.51
2022-11-28T03:07:06.171Z,95.23
2022-11-28T03:08:06.153Z,95.23
2022-11-28T03:09:06.138Z,95.95
2022-11-28T03:10:06.134Z,95.33
2022-11-28T03:11:06.145Z,95.53
2022-11-28T03:12:06.119Z,95.64
2022-11-28T03:13:06.099Z,95.64
2022-11-28T03:14:06.089Z,95.12
2022-11-28T03:15:06.072Z,95.23
2022-11-28T03:16:06.244Z,95.53
2022-11-28T03:17:06.074Z,96.15
2022-11-28T03:18:06.053Z,96.09
2022-11-28T03:19:06.025Z,95.53
2022-11-28T03:20:06.035Z,95.33
2022-11-28T03:21:06.015Z,95.95
2022-11-28T03:22:06.015Z,96.05
2022-11-28T03:23:05.989Z,96.20
2022-11-28T03:24:05.973Z,95.78
2022-11-28T03:25:05.956Z,95.95
2022-11-28T03:26:05.951Z,95.95
2022-11-28T03:27:05.946Z,95.95
2022-11-28T03:28:05.950Z,96.36
2022-11-28T03:29:05.915Z,96.09
2022-11-28T03:30:05.903Z,96.77
2022-11-28T03:31:05.933Z,96.36
2022-11-28T03:32:06.004Z,96.61
2022-11-28T03:33:05.884Z,96.71
2022-11-28T03:34:05.863Z,96.67
2022-11-28T03:35:05.849Z,97.08
2022-11-28T03:36:05.839Z,96.67
2022-11-28T03:37:05.824Z,96.92
2022-11-28T03:38:05.855Z,97.18
2022-11-28T03:39:05.803Z,97.80
2022-11-28T03:40:05.794Z,97.85
2022-11-28T03:41:05.781Z,97.60
2022-11-28T03:42:05.834Z,97.49
2022-11-28T03:43:05.763Z,97.69
2022-11-28T03:44:05.765Z,98.00
2022-11-28T03:45:05.742Z,97.28
2022-11-28T03:46:05.726Z,97.85
2022-11-28T03:47:05.776Z,97.95
2022-11-28T03:48:05.823Z,97.53
2022-11-28T03:49:05.704Z,98.15
2022-11-28T03:50:05.795Z,98.57
2022-11-28T03:51:05.693Z,98.57
2022-11-28T03:52:05.662Z,98.57
2022-11-28T03:53:05.681Z,98.57
2022-11-28T03:54:05.636Z,98.25
2022-11-28T03:55:05.621Z,98.36
2022-11-28T03:56:05.708Z,98.05
2022-11-28T03:57:05.623Z,98.05
2022-11-28T03:58:05.593Z,97.74
2022-11-28T03:59:05.592Z,98.46
2022-11-28T04:00:05.574Z,98.05
2022-11-28T04:01:05.610Z,98.25
2022-11-28T04:02:05.553Z,98.11
2022-11-28T04:03:05.641Z,98.25
2022-11-28T04:04:05.643Z,98.15
2022-11-28T04:05:05.514Z,98.25
2022-11-28T04:06:05.503Z,98.57
2022-11-28T04:07:05.499Z,98.46
2022-11-28T04:08:05.547Z,99.08
2022-11-28T04:09:07.130Z,98.88
2022-11-28T04:10:05.462Z,98.67
2022-11-28T04:11:05.460Z,99.08
2022-11-28T04:12:05.435Z,98.88
2022-11-28T04:13:05.420Z,98.77
2022-11-28T04:14:05.424Z,98.67
2022-11-28T04:15:05.404Z,98.72
2022-11-28T04:16:05.421Z,98.88
2022-11-28T04:17:05.388Z,98.67
2022-11-28T04:18:05.372Z,98.88
2022-11-28T04:19:05.366Z,98.97
2022-11-28T04:20:05.485Z,99.08
2022-11-28T04:21:05.330Z,99.49
2022-11-28T04:22:05.323Z,99.39
2022-11-28T04:23:05.315Z,99.18
2022-11-28T04:24:05.318Z,99.29
2022-11-28T04:25:05.294Z,99.29
2022-11-28T04:26:05.305Z,99.60
2022-11-28T04:27:05.264Z,99.60
2022-11-28T04:28:05.260Z,99.29
2022-11-28T04:29:05.253Z,99.39
2022-11-28T04:30:05.267Z,99.49
2022-11-28T04:31:05.336Z,99.60
2022-11-28T04:32:05.248Z,99.70
2022-11-28T04:33:05.255Z,99.29
2022-11-28T04:34:05.197Z,99.60
2022-11-28T04:35:05.173Z,99.44
2022-11-28T04:36:05.276Z,99.24
2022-11-28T04:37:09.554Z,99.44
2022-11-28T04:38:05.162Z,99.55
2022-11-28T04:39:05.134Z,99.65
2022-11-28T04:40:05.126Z,99.44
2022-11-28T04:41:05.107Z,99.80
2022-11-28T04:42:05.093Z,99.34
2022-11-28T04:43:05.095Z,99.39
2022-11-28T04:44:05.074Z,99.44
2022-11-28T04:45:05.070Z,99.86
2022-11-28T04:46:05.119Z,99.86
2022-11-28T04:47:05.042Z,99.76
2022-11-28T04:48:05.053Z,99.76
2022-11-28T04:49:05.028Z,99.86
2022-11-28T04:50:05.019Z,99.44
2022-11-28T04:51:04.994Z,99.99
2022-11-28T04:52:05.003Z,99.99
2022-11-28T04:53:04.972Z,99.99
2022-11-28T04:54:04.963Z,99.99
2022-11-28T04:55:04.965Z,99.99
2022-11-28T04:56:04.946Z,99.99
2022-11-28T04:57:04.926Z,99.99
2022-11-28T04:58:04.915Z,99.99
2022-11-28T04:59:04.915Z,99.99
2022-11-28T05:00:04.905Z,99.99
2022-11-28T05:01:05.009Z,99.96
2022-11-28T05:02:04.952Z,99.99
2022-11-28T05:03:04.863Z,99.99
2022-11-28T05:04:04.847Z,99.99
2022-11-28T05:05:04.845Z,99.99
2022-11-28T05:06:04.851Z,99.99
2022-11-28T05:07:04.839Z,99.99
2022-11-28T05:08:04.980Z,99.99
2022-11-28T05:09:04.794Z,99.99
2022-11-28T05:10:04.786Z,99.99
2022-11-28T05:11:04.802Z,99.99
2022-11-28T05:12:04.791Z,99.99
2022-11-28T05:13:04.747Z,99.99
2022-11-28T05:14:04.734Z,99.99
2022-11-28T05:15:04.765Z,99.14
2022-11-28T05:16:04.748Z,99.99
2022-11-28T05:17:04.704Z,99.55
2022-11-28T05:18:04.698Z,99.99
2022-11-28T05:19:04.678Z,99.99
2022-11-28T05:20:04.666Z,99.99
2022-11-28T05:21:04.670Z,99.99
2022-11-28T05:22:04.644Z,99.99
2022-11-28T05:23:04.642Z,99.99
2022-11-28T05:24:04.747Z,99.65
2022-11-28T05:25:04.614Z,99.99
2022-11-28T05:26:04.659Z,99.99
2022-11-28T05:27:04.592Z,99.96
2022-11-28T05:28:04.576Z,99.86
2022-11-28T05:29:04.569Z,99.99
2022-11-28T05:30:04.591Z,99.86
2022-11-28T05:31:04.552Z,99.24
2022-11-28T05:32:04.607Z,99.14
2022-11-28T05:33:04.559Z,99.76
2022-11-28T05:34:04.510Z,99.76
2022-11-28T05:35:04.513Z,99.55
2022-11-28T05:36:08.514Z,99.55
2022-11-28T05:37:05.479Z,99.55
2022-11-28T05:38:07.145Z,99.34
2022-11-28T05:39:04.475Z,99.44
2022-11-28T05:40:04.573Z,99.24
2022-11-28T05:41:04.442Z,99.44
2022-11-28T05:42:04.459Z,99.55
2022-11-28T05:43:04.412Z,99.34
2022-11-28T05:44:04.395Z,99.18
2022-11-28T05:45:04.395Z,99.29
2022-11-28T05:46:04.477Z,99.39
2022-11-28T05:47:04.384Z,99.34
2022-11-28T05:48:04.350Z,99.39
2022-11-28T05:49:04.358Z,99.44
2022-11-28T05:50:04.329Z,99.18
2022-11-28T05:51:04.322Z,99.14
2022-11-28T05:52:04.313Z,99.18
2022-11-28T05:53:04.326Z,99.04
2022-11-28T05:54:04.313Z,99.34
2022-11-28T05:55:04.273Z,99.18
2022-11-28T05:56:04.374Z,99.18
2022-11-28T05:57:04.262Z,99.18
2022-11-28T05:58:04.238Z,99.49
2022-11-28T05:59:04.260Z,99.70
2022-11-28T06:00:04.220Z,99.39
2022-11-28T06:01:04.212Z,99.29
2022-11-28T06:02:04.312Z,99.14
2022-11-28T06:03:04.184Z,99.08
2022-11-28T06:04:04.218Z,99.14
2022-11-28T06:05:21.058Z,99.60
2022-11-28T06:06:05.152Z,99.44
2022-11-28T06:07:04.149Z,99.39
2022-11-28T06:08:04.190Z,99.39
2022-11-28T06:09:04.125Z,99.29
2022-11-28T06:10:04.105Z,99.08
2022-11-28T06:11:04.095Z,99.08
2022-11-28T06:12:04.206Z,99.14
2022-11-28T06:13:04.097Z,98.93
2022-11-28T06:14:04.060Z,99.24
2022-11-28T06:15:04.052Z,99.04
2022-11-28T06:16:11.213Z,98.72
2022-11-28T06:17:04.035Z,98.52
2022-11-28T06:18:04.019Z,98.77
2022-11-28T06:19:04.027Z,98.67
2022-11-28T06:20:04.000Z,99.04
2022-11-28T06:21:03.981Z,98.88
2022-11-28T06:22:03.967Z,98.97
2022-11-28T06:23:03.963Z,98.97
2022-11-28T06:24:03.958Z,98.93
2022-11-28T06:25:03.939Z,98.97
2022-11-28T06:26:03.936Z,98.88
2022-11-28T06:27:03.920Z,98.88
2022-11-28T06:28:04.025Z,98.93
2022-11-28T06:29:03.915Z,98.88
2022-11-28T06:30:03.889Z,98.83
2022-11-28T06:31:03.874Z,98.77
2022-11-28T06:32:03.915Z,98.77
2022-11-28T06:33:03.859Z,98.25
2022-11-28T06:34:03.834Z,98.25
2022-11-28T06:35:03.831Z,98.15
2022-11-28T06:36:03.822Z,98.15
2022-11-28T06:37:03.803Z,98.05
2022-11-28T06:38:03.805Z,98.05
2022-11-28T06:39:03.787Z,98.36
2022-11-28T06:40:03.771Z,97.85
2022-11-28T06:41:03.766Z,97.74
2022-11-28T06:42:03.750Z,98.15
2022-11-28T06:43:03.770Z,98.05
2022-11-28T06:44:03.836Z,98.05
2022-11-28T06:45:03.715Z,98.36
2022-11-28T06:46:03.876Z,98.05
2022-11-28T06:47:03.700Z,97.74
2022-11-28T06:48:03.686Z,97.95
2022-11-28T06:49:03.705Z,98.15
2022-11-28T06:50:03.662Z,97.85
2022-11-28T06:51:03.642Z,98.05
2022-11-28T06:52:03.638Z,98.05
2022-11-28T06:53:03.634Z,98.05
2022-11-28T06:54:03.608Z,98.25
2022-11-28T06:55:03.613Z,98.15
2022-11-28T06:56:03.595Z,97.95
2022-11-28T06:57:03.577Z,98.36
2022-11-28T06:58:03.576Z,98.15
2022-11-28T06:59:03.568Z,97.74
2022-11-28T07:00:03.660Z,98.15
2022-11-28T07:01:03.638Z,98.05
2022-11-28T07:02:07.616Z,98.25
2022-11-28T07:03:03.528Z,98.05
2022-11-28T07:04:03.505Z,98.05
2022-11-28T07:05:03.497Z,98.05
2022-11-28T07:06:03.490Z,98.25
2022-11-28T07:07:03.484Z,98.05
2022-11-28T07:08:03.541Z,98.15
2022-11-28T07:09:03.446Z,97.85
2022-11-28T07:10:03.449Z,98.05
2022-11-28T07:11:03.427Z,97.85
2022-11-28T07:12:03.411Z,97.85
2022-11-28T07:13:05.538Z,98.25
2022-11-28T07:14:03.397Z,98.15
2022-11-28T07:15:03.382Z,97.95
2022-11-28T07:16:03.483Z,98.05
2022-11-28T07:17:03.404Z,98.15
2022-11-28T07:18:03.342Z,98.05
2022-11-28T07:19:03.329Z,97.85
2022-11-28T07:20:03.327Z,98.15
2022-11-28T07:21:03.321Z,98.25
2022-11-28T07:22:03.294Z,98.05
2022-11-28T07:23:03.298Z,98.57
2022-11-28T07:24:03.272Z,98.77
2022-11-28T07:25:03.273Z,98.57
2022-11-28T07:26:03.254Z,98.46
2022-11-28T07:27:03.260Z,98.57
2022-11-28T07:28:03.234Z,98.05
2022-11-28T07:29:03.228Z,97.95
2022-11-28T07:30:03.215Z,98.15
2022-11-28T07:31:03.192Z,97.74
2022-11-28T07:32:03.377Z,97.95
2022-11-28T07:33:03.181Z,97.85
2022-11-28T07:34:03.186Z,97.85
2022-11-28T07:35:03.158Z,97.85
2022-11-28T07:36:03.134Z,97.74
2022-11-28T07:37:03.130Z,98.05
2022-11-28T07:38:03.126Z,98.10
2022-11-28T07:39:03.126Z,98.05
2022-11-28T07:40:03.090Z,98.05
2022-11-28T07:41:03.078Z,98.15
2022-11-28T07:42:03.065Z,97.74
2022-11-28T07:43:03.070Z,98.36
2022-11-28T07:44:03.063Z,98.36
2022-11-28T07:45:03.092Z,98.05
2022-11-28T07:46:03.065Z,98.05
2022-11-28T07:47:03.128Z,98.30
2022-11-28T07:48:03.020Z,98.46
2022-11-28T07:49:03.022Z,98.36
2022-11-28T07:50:02.996Z,97.85
2022-11-28T07:51:03.029Z,98.46
2022-11-28T07:52:02.953Z,97.68
2022-11-28T07:53:07.174Z,98.10
2022-11-28T07:54:02.939Z,97.99
2022-11-28T07:55:02.922Z,97.95
2022-11-28T07:56:02.930Z,98.05
2022-11-28T07:57:18.202Z,97.74
2022-11-28T07:58:03.894Z,98.25
2022-11-28T07:59:03.540Z,98.46
2022-11-28T08:00:02.874Z,97.85
2022-11-28T08:01:02.861Z,98.15
2022-11-28T08:02:02.917Z,97.74
2022-11-28T08:03:02.850Z,98.36
2022-11-28T08:04:02.907Z,98.25
2022-11-28T08:05:02.883Z,97.74
2022-11-28T08:06:03.316Z,98.25
2022-11-28T08:07:02.828Z,98.36
2022-11-28T08:08:02.928Z,98.15
2022-11-28T08:09:02.770Z,98.36
2022-11-28T08:10:02.755Z,98.05
2022-11-28T08:11:02.760Z,97.95
2022-11-28T08:12:02.734Z,98.46
2022-11-28T08:13:02.737Z,98.05
2022-11-28T08:14:02.714Z,98.05
2022-11-28T08:15:02.698Z,98.05
2022-11-28T08:16:02.689Z,98.25
2022-11-28T08:17:02.771Z,98.25
2022-11-28T08:18:02.675Z,98.50
2022-11-28T08:19:02.674Z,98.67
2022-11-28T08:20:02.662Z,98.97
2022-11-28T08:21:02.638Z,98.36
2022-11-28T08:22:02.617Z,98.30
2022-11-28T08:23:02.622Z,98.10
2022-11-28T08:24:02.607Z,98.20
2022-11-28T08:25:02.599Z,98.15
2022-11-28T08:26:02.572Z,98.30
2022-11-28T08:27:02.579Z,98.57
2022-11-28T08:28:02.552Z,98.92
2022-11-28T08:29:02.553Z,99.02
2022-11-28T08:30:02.528Z,99.13
2022-11-28T08:31:02.601Z,98.88
2022-11-28T08:32:02.509Z,98.88
2022-11-28T08:33:02.492Z,98.88
2022-11-28T08:34:02.486Z,98.97
2022-11-28T08:35:02.471Z,98.71
2022-11-28T08:36:02.478Z,98.88
2022-11-28T08:37:02.458Z,98.88
2022-11-28T08:38:02.446Z,98.92
2022-11-28T08:39:23.541Z,98.88
2022-11-28T08:40:03.427Z,98.97
2022-11-28T08:41:02.412Z,98.88
2022-11-28T08:42:02.400Z,98.41
2022-11-28T08:43:02.389Z,98.71
2022-11-28T08:44:02.380Z,98.61
2022-11-28T08:45:02.377Z,98.77
2022-11-28T08:46:02.579Z,98.97
2022-11-28T08:47:02.355Z,99.08
2022-11-28T08:48:02.326Z,98.67
2022-11-28T08:49:04.377Z,98.97
2022-11-28T08:50:02.326Z,98.88
2022-11-28T08:51:02.301Z,98.88
2022-11-28T08:52:02.328Z,98.88
2022-11-28T08:53:07.778Z,98.88
2022-11-28T08:54:03.285Z,99.08
2022-11-28T08:55:02.257Z,98.88
2022-11-28T08:56:02.237Z,98.97
2022-11-28T08:57:02.243Z,98.97
2022-11-28T08:58:02.233Z,98.88
2022-11-28T08:59:02.206Z,98.57
2022-11-28T09:00:02.197Z,98.88
2022-11-28T09:01:02.219Z,99.08
2022-11-28T09:02:02.228Z,98.67
2022-11-28T09:03:02.169Z,98.57
2022-11-28T09:04:02.213Z,98.05
2022-11-28T09:05:02.141Z,98.25
2022-11-28T09:06:02.123Z,98.25
2022-11-28T09:07:02.111Z,98.15
2022-11-28T09:08:02.206Z,97.95
2022-11-28T09:09:02.105Z,98.05
2022-11-28T09:10:02.077Z,97.95
2022-11-28T09:11:02.064Z,98.05
2022-11-28T09:12:02.057Z,98.05
2022-11-28T09:13:02.073Z,98.15
2022-11-28T09:14:02.065Z,98.05
2022-11-28T09:15:02.017Z,98.05
2022-11-28T09:16:02.010Z,98.15
2022-11-28T09:17:02.087Z,97.95
2022-11-28T09:18:01.996Z,97.85
2022-11-28T09:19:02.005Z,98.05
2022-11-28T09:20:01.971Z,98.15
2022-11-28T09:21:01.955Z,98.11
2022-11-28T09:22:01.940Z,98.15
2022-11-28T09:23:01.924Z,98.15
2022-11-28T09:24:01.951Z,98.15
2022-11-28T09:25:01.932Z,98.15
2022-11-28T09:26:01.902Z,98.46
2022-11-28T09:27:01.909Z,97.85
2022-11-28T09:28:01.874Z,97.80
2022-11-28T09:29:01.881Z,97.95
2022-11-28T09:30:01.864Z,98.05
2022-11-28T09:31:01.906Z,98.05
2022-11-28T09:32:01.835Z,98.15
2022-11-28T09:33:01.847Z,97.95
2022-11-28T09:34:01.808Z,98.21
2022-11-28T09:35:01.805Z,98.25
2022-11-28T09:36:01.787Z,97.95
2022-11-28T09:37:04.800Z,98.52
2022-11-28T09:38:01.771Z,98.52
2022-11-28T09:39:01.754Z,98.21
2022-11-28T09:40:16.453Z,98.42
2022-11-28T09:41:02.725Z,98.21
2022-11-28T09:42:01.722Z,98.00
2022-11-28T09:43:01.707Z,98.32
2022-11-28T09:44:01.691Z,98.21
2022-11-28T09:45:01.695Z,98.32
2022-11-28T09:46:01.728Z,98.72
2022-11-28T09:47:01.662Z,98.93
2022-11-28T09:48:01.661Z,98.52
2022-11-28T09:49:01.632Z,99.04
2022-11-28T09:50:01.645Z,98.93
2022-11-28T09:51:01.621Z,98.52
2022-11-28T09:52:01.669Z,98.42
2022-11-28T09:53:01.704Z,98.00
2022-11-28T09:54:01.583Z,98.62
2022-11-28T09:55:01.568Z,98.52
2022-11-28T09:56:01.601Z,98.47
2022-11-28T09:57:01.548Z,98.21
2022-11-28T09:58:01.535Z,98.16
2022-11-28T09:59:01.545Z,98.11
2022-11-28T10:00:01.520Z,98.11
2022-11-28T10:01:01.520Z,98.21
2022-11-28T10:02:01.491Z,98.11
2022-11-28T10:03:01.480Z,98.52
2022-11-28T10:04:01.656Z,98.72
2022-11-28T10:05:01.530Z,98.79
2022-11-28T10:06:01.449Z,98.68
2022-11-28T10:07:01.440Z,98.79
2022-11-28T10:08:01.536Z,98.79
2022-11-28T10:09:01.411Z,98.79
2022-11-28T10:10:01.412Z,98.99
2022-11-28T10:11:01.409Z,98.88
2022-11-28T10:12:01.397Z,98.79
2022-11-28T10:13:01.373Z,98.88
2022-11-28T10:14:08.158Z,98.99
2022-11-28T10:15:02.356Z,98.68
2022-11-28T10:16:01.333Z,98.79
2022-11-28T10:17:01.413Z,98.68
2022-11-28T10:18:01.309Z,98.99
2022-11-28T10:19:01.317Z,99.09
2022-11-28T10:20:01.544Z,98.88
2022-11-28T10:21:01.280Z,98.99
2022-11-28T10:22:01.279Z,99.19
2022-11-28T10:23:01.269Z,98.79
2022-11-28T10:24:01.248Z,98.68
2022-11-28T10:25:01.226Z,98.68
2022-11-28T10:26:01.232Z,98.62
2022-11-28T10:27:01.205Z,98.79
2022-11-28T10:28:01.230Z,98.79
2022-11-28T10:29:01.196Z,98.79
2022-11-28T10:30:01.235Z,98.47
2022-11-28T10:31:01.248Z,98.47
2022-11-28T10:32:01.153Z,98.58
2022-11-28T10:33:01.154Z,98.58
2022-11-28T10:34:01.134Z,98.72
2022-11-28T10:35:01.143Z,98.62
2022-11-28T10:36:01.119Z,98.47
2022-11-28T10:37:01.099Z,98.68
2022-11-28T10:38:01.150Z,98.99
2022-11-28T10:39:01.103Z,99.30
2022-11-28T10:40:01.062Z,99.24
2022-11-28T10:41:01.054Z,99.30
2022-11-28T10:42:01.040Z,99.40
2022-11-28T10:43:01.025Z,99.09
2022-11-28T10:44:01.048Z,98.99
2022-11-28T10:45:01.039Z,99.19
2022-11-28T10:46:01.041Z,99.19
2022-11-28T10:47:01.004Z,99.30
2022-11-28T10:48:07.471Z,99.60
2022-11-28T10:49:01.976Z,99.09
2022-11-28T10:50:00.951Z,99.30
2022-11-28T10:51:00.951Z,99.35
2022-11-28T10:52:00.933Z,99.30
2022-11-28T10:53:00.931Z,98.99
2022-11-28T10:54:00.904Z,99.60
2022-11-28T10:55:00.934Z,99.40
2022-11-28T10:56:00.920Z,99.19
2022-11-28T10:57:00.893Z,99.25
2022-11-28T10:58:00.862Z,99.51
2022-11-28T10:59:00.885Z,99.19
2022-11-28T11:00:00.859Z,99.60
2022-11-28T11:01:00.918Z,99.56
2022-11-28T11:02:00.882Z,99.51
2022-11-28T11:03:00.804Z,99.19
2022-11-28T11:04:00.825Z,99.09
2022-11-28T11:05:00.810Z,99.19
2022-11-28T11:06:00.774Z,99.40
2022-11-28T11:07:09.144Z,99.19
2022-11-28T11:08:01.836Z,99.51
2022-11-28T11:09:00.736Z,99.51
2022-11-28T11:10:00.738Z,99.35
2022-11-28T11:11:00.725Z,99.66
2022-11-28T11:12:00.726Z,99.81
2022-11-28T11:13:00.690Z,99.77
2022-11-28T11:14:00.687Z,99.99
2022-11-28T11:15:00.669Z,99.99
2022-11-28T11:16:00.845Z,99.99
2022-11-28T11:17:00.645Z,99.99
2022-11-28T11:18:00.681Z,99.87
2022-11-28T11:19:00.642Z,99.99
2022-11-28T11:20:00.616Z,99.97
2022-11-28T11:21:00.605Z,99.97
2022-11-28T11:22:00.638Z,99.97
2022-11-28T11:23:00.601Z,99.51
2022-11-28T11:24:00.570Z,99.99
2022-11-28T11:25:00.578Z,99.97
2022-11-28T11:26:00.543Z,99.99
2022-11-28T11:27:00.536Z,99.97
2022-11-28T11:28:00.518Z,99.97
2022-11-28T11:29:00.509Z,99.97
2022-11-28T11:30:00.506Z,99.99
2022-11-28T11:31:00.633Z,99.87
2022-11-28T11:32:00.515Z,99.77
2022-11-28T11:33:00.463Z,99.99
2022-11-28T11:34:00.452Z,99.77
2022-11-28T11:35:00.439Z,99.97
2022-11-28T11:36:00.436Z,99.99
2022-11-28T11:37:00.438Z,99.97
2022-11-28T11:38:00.441Z,99.99
2022-11-28T11:39:00.403Z,99.87
2022-11-28T11:40:00.388Z,99.97
2022-11-28T11:41:00.373Z,99.99
2022-11-28T11:42:00.366Z,99.99
2022-11-28T11:43:00.382Z,99.97
2022-11-28T11:44:00.339Z,99.99
2022-11-28T11:45:00.336Z,99.99
2022-11-28T11:46:00.390Z,99.99
2022-11-28T11:47:00.305Z,99.99
2022-11-28T11:48:00.321Z,99.99
2022-11-28T11:49:00.312Z,99.99
2022-11-28T11:50:00.272Z,99.99
2022-11-28T11:51:00.267Z,99.91
2022-11-28T11:52:00.277Z,99.99
2022-11-28T11:53:00.242Z,99.99
2022-11-28T11:54:00.226Z,99.99
2022-11-28T11:55:00.233Z,99.99
2022-11-28T11:56:00.204Z,99.99
2022-11-28T11:57:30.603Z,99.99
2022-11-28T11:58:05.411Z,99.99
2022-11-28T11:59:00.168Z,99.99
2022-11-28T12:00:00.185Z,99.99
2022-11-28T12:01:00.185Z,99.99
2022-11-28T12:02:00.139Z,99.99
2022-11-28T12:03:00.304Z,99.99
2022-11-28T12:04:05.616Z,99.99
2022-11-28T12:05:01.230Z,99.99
2022-11-28T12:06:13.652Z,99.99
2022-11-28T12:07:01.107Z,99.99
2022-11-28T12:08:00.148Z,99.99
2022-11-28T12:09:00.079Z,99.99
2022-11-28T12:10:04.315Z,99.99
2022-11-28T12:11:00.044Z,99.99
2022-11-28T12:12:00.050Z,99.99
2022-11-28T12:13:00.015Z,99.99
2022-11-28T12:14:00.002Z,99.99
2022-11-28T12:14:59.992Z,99.99
2022-11-28T12:16:00.083Z,99.99
2022-11-28T12:17:25.740Z,99.99
2022-11-28T12:18:00.954Z,99.99
2022-11-28T12:18:59.945Z,99.99
2022-11-28T12:19:59.953Z,99.99
2022-11-28T12:20:59.938Z,99.99
2022-11-28T12:21:59.917Z,99.99
2022-11-28T12:22:59.903Z,99.99
2022-11-28T12:23:59.895Z,99.99
2022-11-28T12:24:59.875Z,99.99
2022-11-28T12:25:59.888Z,99.99
2022-11-28T12:26:59.873Z,99.99
2022-11-28T12:27:59.851Z,99.99
2022-11-28T12:28:59.844Z,99.99
2022-11-28T12:29:59.820Z,99.99
2022-11-28T12:30:59.897Z,99.99
2022-11-28T12:31:59.827Z,99.99
2022-11-28T12:32:59.814Z,99.99
2022-11-28T12:33:59.787Z,99.99
2022-11-28T12:34:59.761Z,99.99
2022-11-28T12:36:03.147Z,99.99
2022-11-28T12:36:59.754Z,99.99
2022-11-28T12:38:15.051Z,99.99
2022-11-28T12:39:00.735Z,99.99
2022-11-28T12:39:59.722Z,99.99
2022-11-28T12:40:59.700Z,99.99
2022-11-28T12:41:59.688Z,99.99
2022-11-28T12:42:59.678Z,99.99
2022-11-28T12:43:59.689Z,99.99
2022-11-28T12:44:59.651Z,99.99
2022-11-28T12:45:59.726Z,99.99
2022-11-28T12:46:59.642Z,99.99
2022-11-28T12:47:59.631Z,99.99
2022-11-28T12:48:59.633Z,99.99
2022-11-28T12:49:59.597Z,99.99
2022-11-28T12:50:59.589Z,99.99
2022-11-28T12:51:59.626Z,99.99